Port-Louis, Guadeloupe
Current Conditions -  °F | °C
As of 11:39 AM on Thursday 23 Oct 2014 (Local Time) from TFFR Reporting Station
Scattered Clouds Scattered Clouds  
Wind Chill: 81°   Ceiling: Unl
Heat Index: 87°   Visibility: 6mi
Dew Point: 77°   Wind: 8mph
Humidity: 89%   Direction: 160°SSE
Pressure: 29.94"   Gusts: NA
Location:  16.43°N, 61.53°W
Report Text: TFFR 231539Z 16007KT 9999 FEW016TCU SCT050 27/25 Q1014
Loading
Personal Weather Stations






























Interactive Weather Map
Tropical Storm Tracking
New forecast layout! Learn more

10-Day Weather Forecast

Advertisements
Track Severe Weather on mobile